FDX23 SVMI-SKBO
Flight info
| Callsign | FDX23 |
|---|---|
| Flight time | 1h 29m |
| Altitude | 36000 |
| Route | BUTSA2 PBL UP533 KIKAS UW44 BUV DCT VULAM VULAM7D |
| Aircraft | B77L/H-SDE1E2E3FGHIJ2J3J4J5M1RWXY/LB1D1 |
Departure
| Time | 2026-05-07 13:24 |
|---|---|
| Airport | Maiquetía Simón Bolívar International Airport (SVMI) |
Arrival
| Time | 2026-05-07 14:54 |
|---|---|
| Airport | El Dorado International Airport (SKBO) |
| Time | Latitude | Longitude | Altitude | Speed | Heading |
|---|---|---|---|---|---|
| 2026-05-07 12:49 | 10.59941 | -67.00921 | 213 ft | 0 kts | 96° |
| 2026-05-07 13:20 | 10.59941 | -67.00917 | 212 ft | 3 kts | 96° |
| 2026-05-07 13:20 | 10.59969 | -67.00909 | 240 ft | 8 kts | 314° |
| 2026-05-07 13:21 | 10.59979 | -67.00982 | 238 ft | 13 kts | 268° |
| 2026-05-07 13:21 | 10.59977 | -67.01071 | 240 ft | 13 kts | 267° |
| 2026-05-07 13:21 | 10.59973 | -67.01160 | 242 ft | 13 kts | 268° |
| 2026-05-07 13:21 | 10.59994 | -67.01241 | 244 ft | 13 kts | 323° |
| 2026-05-07 13:22 | 10.60081 | -67.01253 | 245 ft | 13 kts | 358° |
| 2026-05-07 13:22 | 10.60169 | -67.01257 | 245 ft | 13 kts | 357° |
| 2026-05-07 13:22 | 10.60257 | -67.01260 | 245 ft | 13 kts | 358° |
| 2026-05-07 13:22 | 10.60345 | -67.01262 | 245 ft | 11 kts | 358° |
| 2026-05-07 13:23 | 10.60376 | -67.01224 | 244 ft | 9 kts | 88° |
| 2026-05-07 13:23 | 10.60376 | -67.01222 | 244 ft | 0 kts | 88° |
| 2026-05-07 13:23 | 10.60380 | -67.01140 | 242 ft | 31 kts | 87° |
| 2026-05-07 13:23 | 10.60395 | -67.00667 | 230 ft | 104 kts | 88° |
| 2026-05-07 13:24 | 10.60425 | -66.99710 | 214 ft | 164 kts | 89° |
| 2026-05-07 13:24 | 10.60474 | -66.98429 | 428 ft | 189 kts | 88° |
| 2026-05-07 13:24 | 10.60527 | -66.97054 | 922 ft | 202 kts | 86° |
| 2026-05-07 13:24 | 10.60758 | -66.95595 | 1454 ft | 214 kts | 79° |
| 2026-05-07 13:25 | 10.61063 | -66.94072 | 2062 ft | 224 kts | 79° |
| 2026-05-07 13:25 | 10.61612 | -66.92516 | 2281 ft | 250 kts | 57° |
| 2026-05-07 13:25 | 10.62393 | -66.91622 | 2600 ft | 260 kts | 41° |
| 2026-05-07 13:25 | 10.63904 | -66.90566 | 3299 ft | 268 kts | 28° |
| 2026-05-07 13:26 | 10.65735 | -66.90121 | 3962 ft | 275 kts | 4° |
| 2026-05-07 13:26 | 10.67662 | -66.90106 | 4818 ft | 278 kts | 1° |
| 2026-05-07 13:26 | 10.69596 | -66.90105 | 5646 ft | 279 kts | 2° |
| 2026-05-07 13:26 | 10.71549 | -66.90069 | 6431 ft | 281 kts | 4° |
| 2026-05-07 13:27 | 10.73510 | -66.90015 | 6976 ft | 285 kts | 4° |
| 2026-05-07 13:27 | 10.75482 | -66.89949 | 7696 ft | 288 kts | 5° |
| 2026-05-07 13:27 | 10.77496 | -66.89874 | 8431 ft | 292 kts | 5° |
| 2026-05-07 13:27 | 10.79542 | -66.89799 | 9162 ft | 294 kts | 3° |
| 2026-05-07 13:28 | 10.81585 | -66.90164 | 9717 ft | 307 kts | 335° |
| 2026-05-07 13:28 | 10.83266 | -66.91493 | 10470 ft | 312 kts | 309° |
| 2026-05-07 13:28 | 10.84235 | -66.93525 | 10802 ft | 334 kts | 281° |
| 2026-05-07 13:28 | 10.84371 | -66.95949 | 10960 ft | 355 kts | 269° |
| 2026-05-07 13:29 | 10.84323 | -66.98547 | 11138 ft | 380 kts | 268° |
| 2026-05-07 13:29 | 10.84253 | -67.01274 | 11757 ft | 388 kts | 269° |
| 2026-05-07 13:29 | 10.84197 | -67.04034 | 12607 ft | 393 kts | 269° |
| 2026-05-07 13:29 | 10.84160 | -67.06839 | 13320 ft | 402 kts | 270° |
| 2026-05-07 13:30 | 10.84137 | -67.09717 | 13953 ft | 411 kts | 270° |
| 2026-05-07 13:30 | 10.84123 | -67.12646 | 14668 ft | 415 kts | 271° |
| 2026-05-07 13:30 | 10.84112 | -67.15585 | 15526 ft | 416 kts | 271° |
| 2026-05-07 13:30 | 10.84100 | -67.18538 | 16327 ft | 418 kts | 271° |
| 2026-05-07 13:31 | 10.84011 | -67.21511 | 17031 ft | 422 kts | 264° |
| 2026-05-07 13:31 | 10.83401 | -67.24422 | 17670 ft | 428 kts | 255° |
| 2026-05-07 13:31 | 10.82556 | -67.27348 | 18389 ft | 432 kts | 253° |
| 2026-05-07 13:31 | 10.81668 | -67.30275 | 19076 ft | 434 kts | 253° |
| 2026-05-07 13:32 | 10.80783 | -67.33220 | 19712 ft | 437 kts | 254° |
| 2026-05-07 13:32 | 10.79917 | -67.36199 | 20352 ft | 440 kts | 254° |
| 2026-05-07 13:32 | 10.79063 | -67.39194 | 21019 ft | 442 kts | 255° |
| 2026-05-07 13:32 | 10.78219 | -67.42213 | 21606 ft | 445 kts | 255° |
| 2026-05-07 13:33 | 10.77371 | -67.45257 | 22182 ft | 449 kts | 255° |
| 2026-05-07 13:33 | 10.76518 | -67.48318 | 22829 ft | 450 kts | 255° |
| 2026-05-07 13:33 | 10.75686 | -67.51356 | 23457 ft | 451 kts | 255° |
| 2026-05-07 13:33 | 10.74836 | -67.54430 | 24028 ft | 451 kts | 255° |
| 2026-05-07 13:34 | 10.73984 | -67.57502 | 24608 ft | 450 kts | 255° |
| 2026-05-07 13:34 | 10.72291 | -67.63639 | 25679 ft | 451 kts | 255° |
| 2026-05-07 13:34 | 10.71440 | -67.66715 | 26122 ft | 454 kts | 255° |
| 2026-05-07 13:35 | 10.70572 | -67.69828 | 26515 ft | 458 kts | 255° |
| 2026-05-07 13:35 | 10.69701 | -67.72951 | 26969 ft | 460 kts | 255° |
| 2026-05-07 13:35 | 10.68839 | -67.76041 | 27487 ft | 460 kts | 255° |
| 2026-05-07 13:35 | 10.67969 | -67.79170 | 28050 ft | 460 kts | 255° |
| 2026-05-07 13:36 | 10.67099 | -67.82300 | 28562 ft | 461 kts | 255° |
| 2026-05-07 13:36 | 10.66226 | -67.85439 | 29006 ft | 462 kts | 254° |
| 2026-05-07 13:36 | 10.65077 | -67.88500 | 29337 ft | 467 kts | 243° |
| 2026-05-07 13:36 | 10.63163 | -67.91171 | 29657 ft | 470 kts | 229° |
| 2026-05-07 13:37 | 10.60922 | -67.93608 | 29995 ft | 474 kts | 229° |
| 2026-05-07 13:37 | 10.58672 | -67.96078 | 30335 ft | 476 kts | 229° |
| 2026-05-07 13:37 | 10.56449 | -67.98571 | 30677 ft | 477 kts | 230° |
| 2026-05-07 13:37 | 10.54235 | -68.01094 | 31018 ft | 478 kts | 230° |
| 2026-05-07 13:38 | 10.52033 | -68.03625 | 31404 ft | 477 kts | 230° |
| 2026-05-07 13:38 | 10.49836 | -68.06150 | 31887 ft | 475 kts | 230° |
| 2026-05-07 13:38 | 10.47651 | -68.08658 | 32366 ft | 473 kts | 231° |
| 2026-05-07 13:38 | 10.45472 | -68.11164 | 32819 ft | 472 kts | 231° |
| 2026-05-07 13:39 | 10.43333 | -68.13631 | 33260 ft | 471 kts | 231° |
| 2026-05-07 13:39 | 10.41165 | -68.16133 | 33707 ft | 470 kts | 231° |
| 2026-05-07 13:39 | 10.39007 | -68.18623 | 34128 ft | 468 kts | 231° |
| 2026-05-07 13:39 | 10.36857 | -68.21104 | 34469 ft | 468 kts | 231° |
| 2026-05-07 13:40 | 10.34704 | -68.23586 | 34813 ft | 468 kts | 231° |
| 2026-05-07 13:40 | 10.32554 | -68.26064 | 35124 ft | 467 kts | 231° |
| 2026-05-07 13:40 | 10.30405 | -68.28541 | 35460 ft | 467 kts | 231° |
| 2026-05-07 13:40 | 10.28252 | -68.31021 | 35793 ft | 467 kts | 231° |
| 2026-05-07 13:41 | 10.26102 | -68.33496 | 36004 ft | 469 kts | 231° |
| 2026-05-07 13:41 | 10.21794 | -68.38456 | 36054 ft | 471 kts | 231° |
| 2026-05-07 13:42 | 10.17485 | -68.43413 | 36047 ft | 465 kts | 231° |
| 2026-05-07 13:42 | 10.13211 | -68.48329 | 36048 ft | 464 kts | 231° |
| 2026-05-07 13:43 | 10.08948 | -68.53231 | 36063 ft | 463 kts | 231° |
| 2026-05-07 13:43 | 10.04682 | -68.58136 | 36058 ft | 463 kts | 231° |
| 2026-05-07 13:44 | 10.00416 | -68.63041 | 36057 ft | 463 kts | 231° |
| 2026-05-07 13:44 | 9.96175 | -68.67937 | 36064 ft | 464 kts | 231° |
| 2026-05-07 13:45 | 9.91901 | -68.72870 | 36052 ft | 466 kts | 231° |
| 2026-05-07 13:45 | 9.87617 | -68.77812 | 36051 ft | 467 kts | 231° |
| 2026-05-07 13:46 | 9.83352 | -68.82729 | 36052 ft | 468 kts | 231° |
| 2026-05-07 13:46 | 9.79045 | -68.87692 | 36045 ft | 469 kts | 231° |
| 2026-05-07 13:47 | 9.74731 | -68.92660 | 36043 ft | 469 kts | 231° |
| 2026-05-07 13:47 | 9.70429 | -68.97614 | 36050 ft | 468 kts | 231° |
| 2026-05-07 13:48 | 9.66129 | -69.02563 | 36045 ft | 467 kts | 231° |
| 2026-05-07 13:48 | 9.61831 | -69.07506 | 36051 ft | 467 kts | 231° |
| 2026-05-07 13:49 | 9.57561 | -69.12410 | 36054 ft | 466 kts | 231° |
| 2026-05-07 13:49 | 9.53272 | -69.17337 | 36057 ft | 466 kts | 231° |
| 2026-05-07 13:50 | 9.48979 | -69.22268 | 36056 ft | 466 kts | 231° |
| 2026-05-07 13:50 | 9.44691 | -69.27191 | 36059 ft | 466 kts | 231° |
| 2026-05-07 13:51 | 9.40392 | -69.32125 | 36061 ft | 466 kts | 231° |
| 2026-05-07 13:51 | 9.36093 | -69.37057 | 36062 ft | 466 kts | 231° |
| 2026-05-07 13:52 | 9.31826 | -69.41951 | 36063 ft | 466 kts | 231° |
| 2026-05-07 13:52 | 9.27520 | -69.46886 | 36064 ft | 467 kts | 231° |
| 2026-05-07 13:53 | 9.23222 | -69.51811 | 36062 ft | 467 kts | 230° |
| 2026-05-07 13:53 | 9.18923 | -69.56734 | 36060 ft | 466 kts | 230° |
| 2026-05-07 13:54 | 9.14623 | -69.61658 | 36056 ft | 466 kts | 230° |
| 2026-05-07 13:54 | 9.10353 | -69.66545 | 36054 ft | 466 kts | 230° |
| 2026-05-07 13:55 | 9.06054 | -69.71463 | 36044 ft | 466 kts | 230° |
| 2026-05-07 13:55 | 9.01755 | -69.76378 | 36049 ft | 466 kts | 230° |
| 2026-05-07 13:56 | 8.97455 | -69.81294 | 36045 ft | 466 kts | 230° |
| 2026-05-07 13:56 | 8.93182 | -69.86177 | 36049 ft | 466 kts | 230° |
| 2026-05-07 13:57 | 8.88877 | -69.91094 | 36048 ft | 466 kts | 230° |
| 2026-05-07 13:57 | 8.84566 | -69.96017 | 36043 ft | 467 kts | 230° |
| 2026-05-07 13:58 | 8.80255 | -70.00937 | 36050 ft | 467 kts | 230° |
| 2026-05-07 13:58 | 8.75969 | -70.05828 | 36036 ft | 468 kts | 230° |
| 2026-05-07 13:59 | 8.71649 | -70.10756 | 36047 ft | 468 kts | 230° |
| 2026-05-07 13:59 | 8.67322 | -70.15690 | 36041 ft | 468 kts | 230° |
| 2026-05-07 14:00 | 8.63008 | -70.20607 | 36045 ft | 468 kts | 230° |
| 2026-05-07 14:00 | 8.58649 | -70.25502 | 36038 ft | 468 kts | 229° |
| 2026-05-07 14:01 | 8.54250 | -70.30305 | 36041 ft | 468 kts | 229° |
| 2026-05-07 14:01 | 8.49817 | -70.35136 | 36044 ft | 469 kts | 229° |
| 2026-05-07 14:02 | 8.45384 | -70.39984 | 36043 ft | 470 kts | 229° |
| 2026-05-07 14:02 | 8.40951 | -70.44840 | 36043 ft | 470 kts | 229° |
| 2026-05-07 14:03 | 8.36516 | -70.49700 | 36043 ft | 470 kts | 229° |
| 2026-05-07 14:03 | 8.32076 | -70.54562 | 36049 ft | 471 kts | 229° |
| 2026-05-07 14:04 | 8.27662 | -70.59394 | 36048 ft | 471 kts | 229° |
| 2026-05-07 14:04 | 8.23211 | -70.64264 | 36046 ft | 471 kts | 229° |
| 2026-05-07 14:05 | 8.18765 | -70.69128 | 36043 ft | 471 kts | 229° |
| 2026-05-07 14:05 | 8.14315 | -70.73993 | 36046 ft | 471 kts | 229° |
| 2026-05-07 14:06 | 8.09866 | -70.78855 | 36044 ft | 471 kts | 229° |
| 2026-05-07 14:06 | 8.05414 | -70.83719 | 36049 ft | 471 kts | 229° |
| 2026-05-07 14:07 | 8.00965 | -70.88580 | 36050 ft | 471 kts | 229° |
| 2026-05-07 14:07 | 7.96542 | -70.93409 | 36050 ft | 471 kts | 229° |
| 2026-05-07 14:08 | 7.92091 | -70.98267 | 36049 ft | 471 kts | 229° |
| 2026-05-07 14:08 | 7.87637 | -71.03127 | 36050 ft | 472 kts | 229° |
| 2026-05-07 14:09 | 7.83179 | -71.07989 | 36047 ft | 472 kts | 229° |
| 2026-05-07 14:09 | 7.78722 | -71.12850 | 36046 ft | 472 kts | 229° |
| 2026-05-07 14:10 | 7.74267 | -71.17707 | 36044 ft | 472 kts | 229° |
| 2026-05-07 14:10 | 7.69810 | -71.22562 | 36042 ft | 472 kts | 228° |
| 2026-05-07 14:11 | 7.65350 | -71.27420 | 36040 ft | 472 kts | 228° |
| 2026-05-07 14:11 | 7.60917 | -71.32248 | 36039 ft | 472 kts | 228° |
| 2026-05-07 14:12 | 7.56453 | -71.37108 | 36037 ft | 472 kts | 228° |
| 2026-05-07 14:12 | 7.51990 | -71.41965 | 36036 ft | 472 kts | 228° |
| 2026-05-07 14:13 | 7.47520 | -71.46828 | 36036 ft | 473 kts | 228° |
| 2026-05-07 14:13 | 7.43045 | -71.51694 | 36031 ft | 473 kts | 228° |
| 2026-05-07 14:14 | 7.39327 | -71.55736 | 36034 ft | 473 kts | 228° |
| 2026-05-07 14:14 | 7.34849 | -71.60603 | 36031 ft | 474 kts | 228° |
| 2026-05-07 14:15 | 7.30369 | -71.65472 | 36034 ft | 474 kts | 228° |
| 2026-05-07 14:15 | 7.25884 | -71.70344 | 36037 ft | 474 kts | 228° |
| 2026-05-07 14:16 | 7.21393 | -71.75220 | 36046 ft | 474 kts | 228° |
| 2026-05-07 14:16 | 7.16903 | -71.80094 | 36056 ft | 475 kts | 228° |
| 2026-05-07 14:17 | 7.12411 | -71.84970 | 36061 ft | 475 kts | 228° |
| 2026-05-07 14:17 | 7.07948 | -71.89814 | 36073 ft | 475 kts | 228° |
| 2026-05-07 14:18 | 7.03455 | -71.94686 | 36075 ft | 475 kts | 228° |
| 2026-05-07 14:18 | 6.99149 | -71.99738 | 36084 ft | 474 kts | 232° |
| 2026-05-07 14:19 | 6.95092 | -72.04983 | 36084 ft | 475 kts | 233° |
| 2026-05-07 14:19 | 6.91044 | -72.10234 | 36102 ft | 475 kts | 233° |
| 2026-05-07 14:20 | 6.86973 | -72.15479 | 36131 ft | 475 kts | 233° |
| 2026-05-07 14:20 | 6.82920 | -72.20680 | 36169 ft | 475 kts | 233° |
| 2026-05-07 14:21 | 6.78838 | -72.25914 | 36191 ft | 475 kts | 232° |
| 2026-05-07 14:21 | 6.74758 | -72.31145 | 36199 ft | 475 kts | 233° |
| 2026-05-07 14:22 | 6.70684 | -72.36368 | 36206 ft | 474 kts | 233° |
| 2026-05-07 14:22 | 6.66609 | -72.41592 | 36203 ft | 475 kts | 233° |
| 2026-05-07 14:23 | 6.62528 | -72.46820 | 36194 ft | 475 kts | 233° |
| 2026-05-07 14:23 | 6.58448 | -72.52046 | 36193 ft | 475 kts | 232° |
| 2026-05-07 14:24 | 6.54366 | -72.57274 | 36191 ft | 476 kts | 233° |
| 2026-05-07 14:24 | 6.50273 | -72.62513 | 36173 ft | 476 kts | 232° |
| 2026-05-07 14:25 | 6.46203 | -72.67723 | 36164 ft | 477 kts | 232° |
| 2026-05-07 14:25 | 6.42102 | -72.72970 | 36159 ft | 477 kts | 232° |
| 2026-05-07 14:26 | 6.38003 | -72.78213 | 36158 ft | 477 kts | 232° |
| 2026-05-07 14:26 | 6.33901 | -72.83459 | 36158 ft | 477 kts | 232° |
| 2026-05-07 14:27 | 6.29790 | -72.88716 | 36166 ft | 478 kts | 232° |
| 2026-05-07 14:27 | 6.25675 | -72.93961 | 36170 ft | 478 kts | 232° |
| 2026-05-07 14:28 | 6.21577 | -72.99164 | 36178 ft | 477 kts | 232° |
| 2026-05-07 14:28 | 6.17457 | -73.04397 | 36183 ft | 477 kts | 232° |
| 2026-05-07 14:29 | 6.13337 | -73.09632 | 36186 ft | 477 kts | 232° |
| 2026-05-07 14:29 | 6.09217 | -73.14866 | 36193 ft | 476 kts | 233° |
| 2026-05-07 14:30 | 6.05103 | -73.20090 | 36197 ft | 476 kts | 232° |
| 2026-05-07 14:30 | 6.00992 | -73.25310 | 36201 ft | 476 kts | 232° |
| 2026-05-07 14:31 | 5.96881 | -73.30528 | 36204 ft | 476 kts | 232° |
| 2026-05-07 14:31 | 5.92832 | -73.35667 | 36139 ft | 464 kts | 232° |
| 2026-05-07 14:31 | 5.90845 | -73.38188 | 35848 ft | 457 kts | 232° |
| 2026-05-07 14:32 | 5.88902 | -73.40652 | 35278 ft | 442 kts | 232° |
| 2026-05-07 14:32 | 5.87010 | -73.43052 | 34429 ft | 433 kts | 232° |
| 2026-05-07 14:32 | 5.85154 | -73.45407 | 33430 ft | 427 kts | 231° |
| 2026-05-07 14:32 | 5.83324 | -73.47728 | 32436 ft | 421 kts | 232° |
| 2026-05-07 14:33 | 5.81515 | -73.50021 | 31524 ft | 415 kts | 232° |
| 2026-05-07 14:33 | 5.79746 | -73.52264 | 30752 ft | 406 kts | 232° |
| 2026-05-07 14:33 | 5.78006 | -73.54471 | 29834 ft | 400 kts | 231° |
| 2026-05-07 14:33 | 5.76287 | -73.56649 | 28851 ft | 396 kts | 231° |
| 2026-05-07 14:34 | 5.74586 | -73.58806 | 27976 ft | 390 kts | 231° |
| 2026-05-07 14:34 | 5.72949 | -73.60882 | 27645 ft | 370 kts | 231° |
| 2026-05-07 14:34 | 5.71371 | -73.62882 | 27267 ft | 364 kts | 231° |
| 2026-05-07 14:34 | 5.69789 | -73.64886 | 26914 ft | 370 kts | 231° |
| 2026-05-07 14:35 | 5.68179 | -73.66925 | 26535 ft | 386 kts | 231° |
| 2026-05-07 14:35 | 5.66460 | -73.69102 | 26104 ft | 408 kts | 231° |
| 2026-05-07 14:35 | 5.64675 | -73.71365 | 25653 ft | 415 kts | 231° |
| 2026-05-07 14:35 | 5.62880 | -73.73640 | 25205 ft | 415 kts | 231° |
| 2026-05-07 14:36 | 5.61085 | -73.75913 | 24764 ft | 414 kts | 231° |
| 2026-05-07 14:36 | 5.59297 | -73.78180 | 24328 ft | 414 kts | 231° |
| 2026-05-07 14:36 | 5.57507 | -73.80448 | 23887 ft | 413 kts | 231° |
| 2026-05-07 14:36 | 5.55720 | -73.82707 | 23407 ft | 412 kts | 231° |
| 2026-05-07 14:37 | 5.53985 | -73.84991 | 22960 ft | 410 kts | 236° |
| 2026-05-07 14:37 | 5.51273 | -73.89954 | 22089 ft | 406 kts | 245° |
| 2026-05-07 14:37 | 5.50115 | -73.92525 | 21660 ft | 404 kts | 246° |
| 2026-05-07 14:38 | 5.48970 | -73.95091 | 21236 ft | 402 kts | 245° |
| 2026-05-07 14:38 | 5.47828 | -73.97644 | 20813 ft | 399 kts | 245° |
| 2026-05-07 14:38 | 5.46689 | -74.00177 | 20414 ft | 397 kts | 245° |
| 2026-05-07 14:38 | 5.45551 | -74.02693 | 20004 ft | 394 kts | 245° |
| 2026-05-07 14:39 | 5.44415 | -74.05197 | 19577 ft | 393 kts | 245° |
| 2026-05-07 14:39 | 5.43281 | -74.07691 | 19145 ft | 391 kts | 245° |
| 2026-05-07 14:39 | 5.42165 | -74.10143 | 18739 ft | 390 kts | 245° |
| 2026-05-07 14:39 | 5.41027 | -74.12642 | 18274 ft | 388 kts | 245° |
| 2026-05-07 14:40 | 5.39906 | -74.15102 | 17671 ft | 389 kts | 244° |
| 2026-05-07 14:40 | 5.38772 | -74.17592 | 17018 ft | 393 kts | 244° |
| 2026-05-07 14:40 | 5.37654 | -74.20045 | 16567 ft | 391 kts | 244° |
| 2026-05-07 14:40 | 5.36528 | -74.22517 | 16126 ft | 388 kts | 244° |
| 2026-05-07 14:41 | 5.35409 | -74.24975 | 15716 ft | 384 kts | 244° |
| 2026-05-07 14:41 | 5.34302 | -74.27405 | 15296 ft | 381 kts | 244° |
| 2026-05-07 14:41 | 5.33202 | -74.29817 | 14879 ft | 379 kts | 244° |
| 2026-05-07 14:41 | 5.32109 | -74.32215 | 14469 ft | 376 kts | 244° |
| 2026-05-07 14:42 | 5.31022 | -74.34602 | 14056 ft | 374 kts | 244° |
| 2026-05-07 14:42 | 5.29955 | -74.36943 | 13896 ft | 361 kts | 243° |
| 2026-05-07 14:42 | 5.28656 | -74.38985 | 13683 ft | 345 kts | 222° |
| 2026-05-07 14:42 | 5.26856 | -74.40472 | 13481 ft | 328 kts | 213° |
| 2026-05-07 14:43 | 5.25040 | -74.41803 | 13328 ft | 323 kts | 213° |
| 2026-05-07 14:43 | 5.23212 | -74.43140 | 13091 ft | 324 kts | 213° |
| 2026-05-07 14:43 | 5.21410 | -74.44472 | 12963 ft | 321 kts | 213° |
| 2026-05-07 14:43 | 5.19623 | -74.45804 | 12741 ft | 318 kts | 214° |
| 2026-05-07 14:44 | 5.17858 | -74.47127 | 12564 ft | 315 kts | 213° |
| 2026-05-07 14:44 | 5.16112 | -74.48437 | 12371 ft | 312 kts | 213° |
| 2026-05-07 14:44 | 5.14386 | -74.49730 | 12200 ft | 308 kts | 214° |
| 2026-05-07 14:44 | 5.12679 | -74.51005 | 12032 ft | 303 kts | 211° |
| 2026-05-07 14:45 | 5.10795 | -74.51840 | 11893 ft | 295 kts | 186° |
| 2026-05-07 14:45 | 5.08757 | -74.51777 | 11888 ft | 294 kts | 163° |
| 2026-05-07 14:45 | 5.06877 | -74.50988 | 11821 ft | 294 kts | 143° |
| 2026-05-07 14:45 | 5.05293 | -74.49698 | 11792 ft | 292 kts | 138° |
| 2026-05-07 14:46 | 5.03773 | -74.48393 | 11796 ft | 291 kts | 138° |
| 2026-05-07 14:46 | 5.02235 | -74.47080 | 11807 ft | 290 kts | 138° |
| 2026-05-07 14:46 | 5.00690 | -74.45769 | 11803 ft | 291 kts | 139° |
| 2026-05-07 14:46 | 4.99146 | -74.44471 | 11821 ft | 289 kts | 139° |
| 2026-05-07 14:47 | 4.97598 | -74.43169 | 11824 ft | 290 kts | 139° |
| 2026-05-07 14:47 | 4.96054 | -74.41873 | 11834 ft | 289 kts | 138° |
| 2026-05-07 14:47 | 4.94512 | -74.40583 | 11842 ft | 288 kts | 138° |
| 2026-05-07 14:47 | 4.92973 | -74.39293 | 11863 ft | 288 kts | 138° |
| 2026-05-07 14:48 | 4.91439 | -74.38007 | 11879 ft | 285 kts | 138° |
| 2026-05-07 14:48 | 4.89967 | -74.36773 | 11878 ft | 272 kts | 138° |
| 2026-05-07 14:48 | 4.88564 | -74.35597 | 11900 ft | 252 kts | 136° |
| 2026-05-07 14:48 | 4.87392 | -74.34376 | 11915 ft | 236 kts | 129° |
| 2026-05-07 14:49 | 4.86354 | -74.33139 | 11891 ft | 226 kts | 128° |
| 2026-05-07 14:49 | 4.85364 | -74.31943 | 11987 ft | 222 kts | 128° |
| 2026-05-07 14:49 | 4.84369 | -74.30732 | 11864 ft | 229 kts | 128° |
| 2026-05-07 14:49 | 4.83370 | -74.29489 | 11524 ft | 225 kts | 128° |
| 2026-05-07 14:50 | 4.82330 | -74.28355 | 11268 ft | 219 kts | 139° |
| 2026-05-07 14:50 | 4.81092 | -74.27497 | 11065 ft | 211 kts | 146° |
| 2026-05-07 14:50 | 4.79891 | -74.26752 | 10871 ft | 193 kts | 146° |
| 2026-05-07 14:50 | 4.78817 | -74.26096 | 10783 ft | 170 kts | 147° |
| 2026-05-07 14:51 | 4.77867 | -74.25514 | 10785 ft | 155 kts | 142° |
| 2026-05-07 14:51 | 4.77074 | -74.24729 | 10804 ft | 164 kts | 131° |
| 2026-05-07 14:51 | 4.76324 | -74.23875 | 10791 ft | 161 kts | 128° |
| 2026-05-07 14:51 | 4.75638 | -74.22997 | 10792 ft | 160 kts | 127° |
| 2026-05-07 14:52 | 4.74919 | -74.22072 | 10393 ft | 170 kts | 127° |
| 2026-05-07 14:52 | 4.74168 | -74.21139 | 9872 ft | 173 kts | 128° |
| 2026-05-07 14:52 | 4.73490 | -74.20166 | 9534 ft | 169 kts | 123° |
| 2026-05-07 14:52 | 4.72783 | -74.19213 | 9190 ft | 169 kts | 124° |
| 2026-05-07 14:53 | 4.72089 | -74.18278 | 8793 ft | 166 kts | 126° |
| 2026-05-07 14:53 | 4.71392 | -74.17357 | 8487 ft | 166 kts | 125° |
| 2026-05-07 14:53 | 4.70719 | -74.16481 | 8372 ft | 149 kts | 124° |
| 2026-05-07 14:53 | 4.70172 | -74.15749 | 8367 ft | 107 kts | 128° |
| 2026-05-07 14:54 | 4.69844 | -74.15322 | 8369 ft | 40 kts | 128° |
| 2026-05-07 14:54 | 4.69759 | -74.15211 | 8369 ft | 12 kts | 120° |
| 2026-05-07 14:54 | 4.69731 | -74.15135 | 8369 ft | 12 kts | 107° |
| 2026-05-07 14:54 | 4.69717 | -74.15055 | 8368 ft | 12 kts | 97° |
| 2026-05-07 14:55 | 4.69708 | -74.14981 | 8367 ft | 0 kts | 96° |
| 2026-05-07 14:57 | 4.69705 | -74.14952 | 8368 ft | 9 kts | 96° |
| 2026-05-07 14:57 | 4.69698 | -74.14891 | 8368 ft | 9 kts | 97° |
| 2026-05-07 14:57 | 4.69689 | -74.14826 | 8368 ft | 10 kts | 97° |
| 2026-05-07 14:58 | 4.69676 | -74.14754 | 8369 ft | 10 kts | 109° |
| 2026-05-07 14:58 | 4.69638 | -74.14692 | 8369 ft | 10 kts | 126° |
| 2026-05-07 14:58 | 4.69593 | -74.14635 | 8369 ft | 10 kts | 128° |
| 2026-05-07 14:58 | 4.69548 | -74.14577 | 8369 ft | 10 kts | 127° |
| 2026-05-07 14:59 | 4.69506 | -74.14519 | 8369 ft | 10 kts | 127° |
| 2026-05-07 14:59 | 4.69462 | -74.14461 | 8369 ft | 10 kts | 127° |
| 2026-05-07 14:59 | 4.69418 | -74.14403 | 8369 ft | 10 kts | 127° |
| 2026-05-07 14:59 | 4.69373 | -74.14345 | 8370 ft | 10 kts | 128° |
| 2026-05-07 15:00 | 4.69329 | -74.14287 | 8369 ft | 10 kts | 128° |
| 2026-05-07 15:00 | 4.69285 | -74.14228 | 8370 ft | 10 kts | 127° |
| 2026-05-07 15:00 | 4.69241 | -74.14170 | 8370 ft | 10 kts | 127° |
| 2026-05-07 15:00 | 4.69197 | -74.14113 | 8370 ft | 10 kts | 128° |
| 2026-05-07 15:01 | 4.69152 | -74.14055 | 8370 ft | 10 kts | 127° |
| 2026-05-07 15:01 | 4.69114 | -74.13994 | 8370 ft | 10 kts | 108° |
| 2026-05-07 15:01 | 4.69104 | -74.13922 | 8370 ft | 10 kts | 93° |
| 2026-05-07 15:01 | 4.69076 | -74.13856 | 8370 ft | 10 kts | 118° |
| 2026-05-07 15:02 | 4.69115 | -74.13801 | 8370 ft | 11 kts | 35° |
| 2026-05-07 15:02 | 4.69135 | -74.13788 | 8371 ft | 1 kts | 34° |
| 2026-05-07 15:02 | 4.69139 | -74.13785 | 8370 ft | 1 kts | 34° |
| 2026-05-07 15:02 | 4.69141 | -74.13784 | 8370 ft | 0 kts | 34° |